الصفحة الرئيسية
METAR-TAF:

METAR-TAF

مطار :

لاغوس, نيجيريا

مطار مورتالا محمد الدولي

دائرة عرض: 06-35N, خط طول: 003-20E, ارتفاع: 40 متر

مراقبة الطقس الحالي

تاريخ ووقت الإصدار 47 دقيقة قبل الساعة 21:00UTC
ريح 3 عقدة من الجنوب
درجة الحرارة 27°درجة مئوية
الرطوبة 84%
ضغط 1011 hPa
الرؤية 10 كم أو أكثر
غيوم قليلة على ارتفاع 1100 قدم

METAR: DNMM 182100Z 18003KT 9999 FEW011 27/24 Q1011 NOSIG

زمن: 22:47 (21:47 UTC)

توقعات

تاريخ ووقت الإصدار 6ساعات و 2 دقيقة قبل الساعة 15:45UTC
التوقعات صالحة من18 الساعة 18 UTC إلى 19 الساعة 24 UTC
ريح 4 عقدة من الجنوب
الرؤية: 8000 متر
غيوم قليلة على ارتفاع 1100 قدم
نظرية الاحتمالات 30% :
مؤقت
من 19 الساعة 01 UTC إلى 19 الساعة 04 UTC
غيوم متفرقة على ارتفاع 1000 قدم
غيوم قليلة على ارتفاع 1900 قدم, مزنة ركامية.
عاصفة رعدية
أصبح
من 19 الساعة 08 UTC إلى 19 الساعة 10 UTC
ريح 10 عقدة من الغرب/الجنوب الغربي
غيوم مفككة على ارتفاع 1300 قدم

TAF: DNMM 181545Z 1818/1924 18004KT 8000 FEW011 PROB30 TEMPO 1901/1904 TS SCT010 FEW019CB BECMG 1908/1910 25010KT BKN013

أرصاد الطقس والتوقعات من أكثر من 4000 مطار (تقارير الطقس للمطار METAR والتنبؤ بالطقس بالمطارTAF).

المحطات المتاحة هي النقط الصفراء والحمراء على الخريطة.

حرك المؤشر فوق النقطة لمعرفة اسم المحطة.

ثم انقر لمعرفة أرصاد وتوقعات الطقس.

لتغيير الخارطة: اضغط على الأزرار الخضراء مع رمز الصليب الأسود للتكبير. على الزر الأخضر مع شرطة للتصغير، أو على الأسهم الخضراء للخرائط المجاورة.


METAR-TAF: